Ruso, North Dakota
Current Conditions -  °F | °C
As of 11:54 AM on Friday 19 Dec 2014 (Local Time) from KMOT Reporting Station
Haze Haze  
Wind Chill: -6°   Ceiling: 400
Heat Index: -3°   Visibility: 5mi
Dew Point: -4°   Wind: 5mph
Humidity: 92%   Direction: 240°WSW
Pressure: 29.93"   Gusts: NA
Location:  47.84°N, 100.93°W
Report Text: KMOT 191754Z 24004KT 5SM BR OVC004 M03/M04 A2993 RMK AO2 SLP160 T10281039 11022 21028 58000
Loading
Personal Weather Stations






























Interactive Weather Map New forecast layout! Learn more

10-Day Weather Forecast

Advertisements
Track Severe Weather on mobile